createdAt,value
2022-10-24T00:02:37.385Z,3.27
2022-10-24T00:05:15.036Z,3.13
2022-10-24T00:07:51.498Z,2.70
2022-10-24T00:10:24.815Z,3.67
2022-10-24T00:12:55.351Z,3.20
2022-10-24T00:15:34.499Z,2.80
2022-10-24T00:21:15.487Z,2.43
2022-10-24T00:23:52.564Z,1.97
2022-10-24T00:26:30.712Z,2.40
2022-10-24T00:29:11.552Z,2.33
2022-10-24T00:32:00.882Z,2.43
2022-10-24T00:34:55.924Z,1.90
2022-10-24T00:38:06.307Z,1.93
2022-10-24T00:40:38.210Z,1.70
2022-10-24T00:46:36.044Z,2.03
2022-10-24T00:49:34.218Z,1.80
2022-10-24T00:52:38.091Z,1.70
2022-10-24T00:55:21.739Z,1.60
2022-10-24T00:58:02.285Z,1.90
2022-10-24T01:00:52.259Z,1.70
2022-10-24T02:03:37.957Z,1.47
2022-10-24T02:06:28.515Z,1.93
2022-10-24T02:09:12.727Z,2.10
2022-10-24T02:12:07.188Z,2.53
2022-10-24T02:15:01.015Z,2.20
2022-10-24T02:17:53.790Z,2.13
2022-10-24T02:20:45.081Z,2.23
2022-10-24T02:23:47.354Z,2.10
2022-10-24T02:26:36.380Z,2.20
2022-10-24T02:29:26.774Z,2.50
2022-10-24T02:32:29.085Z,2.00
2022-10-24T02:35:15.304Z,2.10
2022-10-24T02:38:23.896Z,2.47
2022-10-24T02:41:10.915Z,2.53
2022-10-24T02:43:54.430Z,2.07
2022-10-24T02:46:35.524Z,1.93
2022-10-24T02:49:24.282Z,2.30
2022-10-24T02:52:13.028Z,2.23
2022-10-24T02:54:55.285Z,2.07
2022-10-24T02:57:32.601Z,2.30
2022-10-24T03:00:10.049Z,2.00
2022-10-24T03:02:40.023Z,2.40
2022-10-24T03:05:12.016Z,2.23
2022-10-24T03:07:46.708Z,2.50
2022-10-24T03:10:21.997Z,2.20
2022-10-24T03:13:04.021Z,2.23
2022-10-24T03:15:43.134Z,2.47
2022-10-24T03:18:12.354Z,2.50
2022-10-24T03:20:53.611Z,2.27
2022-10-24T03:23:36.579Z,2.30
2022-10-24T03:26:35.768Z,2.00
2022-10-24T03:29:14.723Z,2.20
2022-10-24T03:32:01.138Z,1.90
2022-10-24T03:34:38.834Z,2.40
2022-10-24T03:37:14.586Z,1.83
2022-10-24T03:39:58.119Z,2.00
2022-10-24T03:42:47.070Z,1.90
2022-10-24T03:52:04.529Z,1.80
2022-10-24T03:55:15.042Z,2.03
2022-10-24T03:58:18.519Z,2.00
2022-10-24T04:00:56.364Z,2.00
2022-10-24T04:03:30.712Z,2.27
2022-10-24T04:05:59.940Z,2.30
2022-10-24T04:11:25.879Z,2.10
2022-10-24T04:13:56.867Z,1.90
2022-10-24T04:16:25.330Z,2.53
2022-10-24T04:18:53.815Z,2.80
2022-10-24T04:21:22.190Z,3.00
2022-10-24T04:23:50.548Z,3.07
2022-10-24T04:26:19.322Z,3.23
2022-10-24T04:28:48.293Z,2.90
2022-10-24T04:31:22.463Z,3.03
2022-10-24T04:33:52.345Z,3.13
2022-10-24T04:36:35.438Z,3.43
2022-10-24T04:39:04.449Z,3.20
2022-10-24T04:41:32.980Z,3.90
2022-10-24T04:44:01.503Z,3.70
2022-10-24T04:46:32.173Z,3.60
2022-10-24T04:49:00.857Z,3.50
2022-10-24T04:51:29.581Z,3.80
2022-10-24T04:53:58.082Z,3.47
2022-10-24T04:56:27.308Z,3.60
2022-10-24T04:58:56.711Z,3.77
2022-10-24T05:01:25.410Z,3.40
2022-10-24T05:03:55.360Z,3.73
2022-10-24T05:06:23.875Z,3.73
2022-10-24T05:08:52.501Z,3.70
2022-10-24T05:11:21.632Z,3.80
2022-10-24T05:13:50.159Z,4.07
2022-10-24T05:16:19.019Z,4.03
2022-10-24T05:18:47.483Z,3.57
2022-10-24T05:21:17.454Z,3.47
2022-10-24T05:23:45.956Z,3.53
2022-10-24T05:26:14.771Z,4.57
2022-10-24T05:28:43.288Z,3.70
2022-10-24T05:31:11.803Z,4.00
2022-10-24T05:33:40.245Z,4.60
2022-10-24T05:36:09.934Z,4.57
2022-10-24T05:38:39.805Z,4.70
2022-10-24T05:41:08.349Z,5.13
2022-10-24T05:43:36.931Z,5.20
2022-10-24T21:30:58.026Z,3.00
2022-10-24T21:33:26.537Z,2.20
2022-10-24T21:35:55.230Z,2.63
2022-10-24T21:38:23.778Z,3.33
2022-10-24T21:40:52.512Z,2.90
2022-10-24T21:43:21.131Z,2.73
2022-10-24T21:45:49.871Z,2.70
2022-10-24T21:48:23.851Z,2.73
2022-10-24T21:50:52.862Z,2.40
2022-10-24T21:53:21.506Z,2.57
2022-10-24T21:55:50.368Z,2.60
2022-10-24T21:58:18.977Z,2.80
2022-10-24T22:00:47.416Z,2.60
2022-10-24T22:03:16.070Z,3.00
2022-10-24T22:05:56.213Z,3.00
2022-10-24T22:11:09.171Z,2.60
2022-10-24T22:13:38.168Z,2.80
2022-10-24T22:16:08.023Z,2.97
2022-10-24T22:18:36.803Z,2.83
2022-10-24T22:21:09.933Z,2.33
2022-10-24T22:23:38.690Z,2.80
2022-10-24T22:26:07.279Z,2.77
2022-10-24T22:28:35.845Z,2.63
2022-10-24T22:31:05.470Z,2.90
2022-10-24T22:33:36.474Z,3.13
2022-10-24T22:36:13.295Z,2.80
2022-10-24T22:38:42.206Z,2.20
2022-10-24T22:41:11.739Z,2.37
2022-10-24T22:43:40.857Z,2.63
2022-10-24T22:46:24.274Z,2.43
2022-10-24T22:48:57.944Z,2.60
2022-10-24T22:51:28.905Z,2.60
2022-10-24T22:53:58.544Z,3.17
2022-10-24T22:56:33.294Z,3.00
2022-10-24T22:59:02.365Z,2.70
2022-10-24T23:01:41.522Z,2.90
2022-10-24T23:04:21.465Z,2.57
2022-10-24T23:06:56.527Z,2.30
2022-10-24T23:09:25.100Z,2.50
2022-10-24T23:11:54.257Z,2.30
2022-10-24T23:14:23.778Z,3.20
2022-10-24T23:16:58.316Z,3.37
2022-10-24T23:19:29.626Z,2.80
2022-10-24T23:22:03.988Z,2.73
2022-10-24T23:24:33.458Z,2.20
2022-10-24T23:27:22.675Z,2.80
2022-10-24T23:29:52.477Z,2.60
2022-10-24T23:32:24.277Z,3.00
2022-10-24T23:34:54.863Z,2.83
2022-10-24T23:37:33.044Z,2.83
2022-10-24T23:40:03.802Z,3.23
2022-10-24T23:42:33.411Z,2.60
2022-10-24T23:45:04.237Z,2.50
2022-10-24T23:47:54.340Z,2.90
2022-10-24T23:50:29.292Z,2.30
2022-10-24T23:53:13.038Z,2.83
2022-10-24T23:55:42.739Z,3.03
2022-10-24T23:58:12.867Z,2.50
